Vremea mâine în Sărmașu - Romania

Vrei sa afli care e starea vremii acum in Mures - Romania? Dorim sa iti furnizam starea vremii pentru Mures - Romania. Starea vremii Mures - Romania pentru astazi.

Vremea mâine în Sărmașu

Temperatura minimă:
9.5 °C

Temperatura maximă:
23.9 °C

Mâine va fi: Patchy rain nearby
Precipitații: 89 %
Umiditate: 63%
Viteza maximă vânt mâine:
11.9 km/h

Evoluția vremii in Sărmașu pe ore mâine

Ora: 03:00
Temperatura: °C
Sansa de precipitatii: %
Ora Descriere Temp Se simte Precipitatii Umiditate Vant
00:00Senin12.5°12.9°0%63%WSW 4 KM/H
01:00Senin11.9°12.3°0%65%WSW 3.6 KM/H
02:00Senin11.4°11.9°0%67%SW 3.2 KM/H
03:00Senin10.9°10.9°0%69%SW 2.2 KM/H
04:00Patchy rain nearby10.4°10.4°85%71%SW 2.5 KM/H
05:00Senin10°10°0%73%S 2.2 KM/H
06:00Senin9.5°9.5°0%75%SSE 2.9 KM/H
07:00Senin10.4°10.6°0%75%S 4 KM/H
08:00Senin13.7°14.2°0%69%SSE 4 KM/H
09:00Senin15.7°15.7°0%64%SE 5.8 KM/H
10:00Senin17.5°17.5°0%60%SE 6.5 KM/H
11:00Senin19.3°19.4°0%56%SE 7.6 KM/H
12:00Senin21°21°0%52%SE 8.6 KM/H
13:00Senin22.4°24.5°0%48%SE 10.8 KM/H
14:00Senin23.3°24.6°0%43%SSE 11.2 KM/H
15:00Senin23.9°24.7°0%39%S 9.4 KM/H
16:00Thundery outbreaks in nearby23.7°24.6°0%39%SSW 6.5 KM/H
17:00Thundery outbreaks in nearby23.5°24.6°0%41%WNW 8.3 KM/H
18:00Thundery outbreaks in nearby22.1°24.5°0%54%NNW 11.9 KM/H
19:00Thundery outbreaks in nearby20.1°20.1°100%65%N 11.9 KM/H
20:00Patchy light rain in area with thunder16.7°16.7°100%75%NNE 4.7 KM/H
21:00Patchy rain nearby13.9°13.9°100%83%SSE 0.7 KM/H
22:00Patchy rain nearby13°13°71%85%WSW 1.8 KM/H
23:00Senin12.8°13.4°0%85%WNW 3.6 KM/H




tutorials